Time;durP1;ratioP1;P1;durP2;ratioP2;P2;SDS_P1;SDS_P2;PMS_P1;PMS_P2;Temp;Humidity;BMP_temperature;BMP_pressure;BME280_temperature;BME280_humidity;BME280_pressure;Samples;Min_cycle;Max_cycle;Signal;HPM_P1;HPM_P2
2021/10/10 00:01:41;;;;;;;39.97;16.05;;;;;;;3.78;95.00;99547.47;5082829;28;20059;-88
2021/10/10 00:04:06;;;;;;;33.88;15.95;;;;;;;3.74;95.89;99543.03;5082535;28;20040;-88
2021/10/10 00:06:32;;;;;;;28.55;14.50;;;;;;;3.73;96.48;99540.38;5082814;28;20023;-88
2021/10/10 00:08:57;;;;;;;34.25;14.73;;;;;;;3.80;96.81;99545.75;5082684;28;20020;-89
2021/10/10 00:11:23;;;;;;;33.40;15.57;;;;;;;3.89;96.76;99552.94;5082394;28;20275;-88
2021/10/10 00:13:48;;;;;;;29.42;14.25;;;;;;;3.83;95.64;99545.84;5082708;28;20074;-88
2021/10/10 00:16:14;;;;;;;31.05;14.55;;;;;;;3.74;95.10;99556.03;5082772;28;20048;-88
2021/10/10 00:18:39;;;;;;;29.35;14.30;;;;;;;3.89;94.73;99551.19;5082526;28;20350;-88
2021/10/10 00:21:05;;;;;;;28.20;14.40;;;;;;;3.91;94.24;99544.28;5082863;28;20270;-88
2021/10/10 00:23:31;;;;;;;25.27;12.85;;;;;;;3.65;93.61;99545.44;5082441;28;20023;-88
2021/10/10 00:25:56;;;;;;;24.75;12.60;;;;;;;3.48;93.88;99546.78;5082645;28;20032;-88
2021/10/10 00:28:21;;;;;;;26.90;13.70;;;;;;;3.40;95.17;99537.94;5082445;28;20095;-88
2021/10/10 00:30:47;;;;;;;32.85;13.38;;;;;;;3.45;95.48;99546.69;5082559;28;20351;-88
2021/10/10 00:33:12;;;;;;;25.42;13.48;;;;;;;3.53;95.02;99539.97;5082425;28;20021;-88
2021/10/10 00:35:38;;;;;;;30.80;13.23;;;;;;;3.57;94.68;99557.41;5083379;28;20032;-88
2021/10/10 00:38:04;;;;;;;29.40;13.73;;;;;;;3.50;94.26;99547.69;5082277;28;20320;-88
2021/10/10 00:40:29;;;;;;;28.95;13.20;;;;;;;3.52;94.36;99543.44;5082168;28;20016;-89
2021/10/10 00:42:55;;;;;;;28.33;13.82;;;;;;;3.29;93.84;99539.38;5082065;28;20024;-88
2021/10/10 00:45:20;;;;;;;29.90;15.40;;;;;;;3.36;95.38;99540.44;5081982;28;20020;-88
2021/10/10 00:47:46;;;;;;;27.67;13.13;;;;;;;3.30;94.46;99535.06;5082517;28;21512;-88
2021/10/10 00:50:11;;;;;;;29.20;14.25;;;;;;;3.02;94.69;99528.34;5098666;28;20050;-88
2021/10/10 00:52:42;;;;;;;28.35;12.05;;;;;;;2.98;94.58;99529.13;5081877;28;20016;-88
2021/10/10 00:55:09;;;;;;;27.80;14.10;;;;;;;3.15;96.10;99525.19;5082853;28;20368;-88
2021/10/10 00:57:35;;;;;;;33.83;15.88;;;;;;;3.35;95.94;99529.13;5086031;28;20331;-88
2021/10/10 01:00:05;;;;;;;27.45;13.43;;;;;;;3.29;94.90;99539.38;5086117;28;20271;-88
2021/10/10 01:02:32;;;;;;;23.52;13.93;;;;;;;3.18;94.43;99535.66;5089594;23;20061;-87
2021/10/10 01:04:57;;;;;;;27.60;13.13;;;;;;;3.24;94.74;99535.81;5066932;28;20361;-87
2021/10/10 01:07:25;;;;;;;20.85;11.32;;;;;;;3.25;93.51;99532.38;5048974;28;20017;-87
2021/10/10 01:09:51;;;;;;;23.80;12.73;;;;;;;3.13;92.80;99521.66;5048919;28;20082;-87
2021/10/10 01:12:17;;;;;;;30.40;14.23;;;;;;;2.94;94.16;99519.47;5049382;28;20311;-87
2021/10/10 01:14:42;;;;;;;27.67;14.13;;;;;;;3.01;95.25;99516.16;5049220;28;20021;-87
2021/10/10 01:17:08;;;;;;;33.70;15.10;;;;;;;3.04;95.89;99517.97;5049052;28;20017;-87
2021/10/10 01:19:34;;;;;;;28.67;14.70;;;;;;;3.11;95.59;99518.16;5049082;28;20016;-87
2021/10/10 01:22:01;;;;;;;27.83;13.63;;;;;;;3.03;94.94;99519.69;5049074;28;20189;-87
2021/10/10 01:24:27;;;;;;;28.10;14.32;;;;;;;3.03;94.28;99514.47;5048539;28;20054;-87
2021/10/10 01:26:53;;;;;;;33.15;15.13;;;;;;;3.12;94.51;99514.72;5066286;28;20048;-88
2021/10/10 01:29:18;;;;;;;28.80;13.52;;;;;;;3.25;94.81;99519.34;5048560;28;20308;-88
2021/10/10 01:31:44;;;;;;;29.85;12.75;;;;;;;3.13;93.28;99516.47;5066024;28;20037;-87
2021/10/10 01:34:09;;;;;;;30.33;12.98;;;;;;;2.98;93.29;99508.31;5048818;28;20087;-87
2021/10/10 01:36:35;;;;;;;40.22;13.00;;;;;;;2.86;94.50;99515.81;5048796;28;20012;-87
2021/10/10 01:39:02;;;;;;;27.73;13.88;;;;;;;2.89;94.86;99507.19;5048738;28;20029;-87
2021/10/10 01:41:27;;;;;;;25.50;13.05;;;;;;;2.85;95.06;99514.03;5048683;28;20017;-87
2021/10/10 01:43:53;;;;;;;23.52;12.80;;;;;;;2.87;95.03;99501.06;5048892;28;20139;-87
2021/10/10 01:46:18;;;;;;;30.50;13.93;;;;;;;2.97;95.04;99511.72;5048587;28;20064;-87
2021/10/10 01:48:44;;;;;;;31.15;12.75;;;;;;;2.92;94.93;99505.56;5048221;28;20239;-87
2021/10/10 01:51:12;;;;;;;25.27;13.05;;;;;;;2.98;94.64;99503.13;5048366;28;20044;-87
2021/10/10 01:53:37;;;;;;;26.13;13.70;;;;;;;3.04;94.38;99503.22;5048127;28;20013;-87
2021/10/10 01:56:03;;;;;;;22.15;11.57;;;;;;;2.93;94.07;99502.09;5047693;28;20032;-87
2021/10/10 01:58:29;;;;;;;25.95;13.20;;;;;;;2.89;93.68;99497.69;5065628;28;20044;-87
2021/10/10 02:00:54;;;;;;;27.55;13.00;;;;;;;2.76;94.32;99498.22;5048103;28;20235;-87
2021/10/10 02:03:19;;;;;;;25.88;12.80;;;;;;;2.83;94.63;99504.44;5055256;28;20232;-87
2021/10/10 02:05:45;;;;;;;23.02;11.82;;;;;;;2.86;94.62;99500.22;5064602;28;20021;-87
2021/10/10 02:08:11;;;;;;;28.58;12.35;;;;;;;2.93;94.24;99496.91;5065481;28;20040;-87
2021/10/10 02:10:36;;;;;;;25.92;12.77;;;;;;;2.82;94.41;99493.19;5065441;28;20027;-87
2021/10/10 02:13:02;;;;;;;26.67;12.80;;;;;;;2.74;95.33;99492.09;5065365;28;20320;-87
2021/10/10 02:15:27;;;;;;;24.85;12.55;;;;;;;2.64;95.24;99500.50;5066467;28;20372;-87
2021/10/10 02:17:53;;;;;;;29.25;12.98;;;;;;;2.55;95.96;99486.38;5065206;28;20024;-87
2021/10/10 02:20:18;;;;;;;33.35;12.98;;;;;;;2.60;95.78;99493.47;5065227;28;20023;-87
2021/10/10 02:22:44;;;;;;;22.25;12.25;;;;;;;2.74;96.03;99484.31;5065267;28;20212;-87
2021/10/10 02:25:09;;;;;;;26.80;12.23;;;;;;;2.85;94.85;99488.03;5065153;28;20021;-87
2021/10/10 02:27:35;;;;;;;26.95;13.13;;;;;;;2.84;94.22;99491.47;5065080;28;20104;-87
2021/10/10 02:30:00;;;;;;;23.63;12.05;;;;;;;2.72;93.65;99482.50;5066215;28;20319;-87
2021/10/10 02:32:26;;;;;;;24.00;11.50;;;;;;;2.63;93.39;99490.97;5065026;28;20021;-87
2021/10/10 02:34:51;;;;;;;31.08;13.23;;;;;;;2.65;93.57;99484.06;5064918;28;20029;-87
2021/10/10 02:37:16;;;;;;;21.70;11.13;;;;;;;2.66;93.31;99482.34;5065978;28;20024;-87
2021/10/10 02:39:42;;;;;;;24.88;11.82;;;;;;;2.57;93.88;99488.22;5064953;28;20021;-87
2021/10/10 02:42:07;;;;;;;28.73;11.82;;;;;;;2.51;93.64;99490.66;5064868;28;20025;-87
2021/10/10 02:44:33;;;;;;;23.00;12.27;;;;;;;2.62;93.64;99488.31;5064833;28;20074;-87
2021/10/10 02:46:59;;;;;;;26.60;13.20;;;;;;;2.57;93.86;99488.22;5064758;28;20025;-87
2021/10/10 02:49:24;;;;;;;26.50;12.25;;;;;;;2.33;93.88;99479.75;5064741;28;20035;-87
2021/10/10 02:51:50;;;;;;;24.08;12.27;;;;;;;2.40;94.40;99481.69;5065825;28;20021;-87
2021/10/10 02:54:15;;;;;;;23.63;12.38;;;;;;;2.38;94.86;99483.38;5065106;28;20045;-87
2021/10/10 02:56:41;;;;;;;29.13;13.77;;;;;;;2.34;95.42;99481.50;5065134;28;20024;-87
2021/10/10 02:59:06;;;;;;;24.92;11.75;;;;;;;2.28;95.25;99471.84;5063910;28;20088;-87
2021/10/10 03:01:32;;;;;;;23.27;11.55;;;;;;;2.43;95.13;99481.75;5064069;28;20017;-87
2021/10/10 03:03:57;;;;;;;22.92;11.07;;;;;;;2.34;94.26;99481.50;5063405;28;20045;-87
2021/10/10 03:06:22;;;;;;;24.83;12.02;;;;;;;2.27;93.75;99478.75;5063376;28;20207;-87
2021/10/10 03:08:48;;;;;;;28.15;11.55;;;;;;;2.21;94.36;99479.44;5063184;28;20029;-87
2021/10/10 03:11:13;;;;;;;27.42;13.65;;;;;;;2.32;93.99;99483.22;5063687;28;20017;-87
2021/10/10 03:13:39;;;;;;;23.73;11.35;;;;;;;2.36;93.23;99479.84;5063228;28;20021;-87
2021/10/10 03:16:04;;;;;;;23.95;10.93;;;;;;;2.32;92.47;99482.31;5063463;28;20021;-87
2021/10/10 03:18:30;;;;;;;25.08;12.77;;;;;;;2.15;92.70;99468.88;5063285;28;20059;-87
2021/10/10 03:20:55;;;;;;;26.65;11.55;;;;;;;2.20;93.05;99477.69;5063524;28;20021;-87
2021/10/10 03:23:21;;;;;;;24.95;12.40;;;;;;;2.29;92.96;99475.34;5063435;28;20021;-87
2021/10/10 03:25:46;;;;;;;25.33;12.25;;;;;;;2.30;93.31;99474.50;5063411;28;20024;-87
2021/10/10 03:28:12;;;;;;;24.83;11.57;;;;;;;2.24;93.52;99469.13;5063502;28;20024;-87
2021/10/10 03:30:37;;;;;;;23.13;12.00;;;;;;;2.05;93.50;99477.25;5063157;28;20029;-87
2021/10/10 03:33:03;;;;;;;25.15;11.63;;;;;;;2.08;93.81;99477.34;5063429;28;20043;-87
2021/10/10 03:35:29;;;;;;;24.27;11.43;;;;;;;2.19;93.70;99481.13;5064257;28;20017;-87
2021/10/10 03:37:54;;;;;;;31.13;12.65;;;;;;;2.10;93.42;99467.91;5064183;28;20212;-87
2021/10/10 03:40:20;;;;;;;22.08;11.35;;;;;;;2.15;93.79;99468.88;5063169;28;20059;-87
2021/10/10 03:42:45;;;;;;;23.55;11.32;;;;;;;2.16;93.31;99474.13;5063220;28;20346;-87
2021/10/10 03:45:11;;;;;;;18.33;9.60;;;;;;;2.00;93.51;99476.28;5062817;28;20063;-87
2021/10/10 03:47:36;;;;;;;21.70;11.30;;;;;;;2.04;93.22;99470.31;5062876;28;20020;-87
2021/10/10 03:50:04;;;;;;;20.75;10.27;;;;;;;2.04;92.93;99471.22;5079347;28;20228;-87
2021/10/10 03:52:29;;;;;;;27.38;12.57;;;;;;;1.84;93.78;99474.09;5063009;28;20021;-87
2021/10/10 03:57:29;;;;;;;24.67;12.32;;;;;;;1.96;94.25;99472.69;5063880;28;20074;-87
2021/10/10 04:00:04;;;;;;;26.08;12.27;;;;;;;1.85;93.36;99470.66;5062883;28;20335;-87
2021/10/10 04:02:30;;;;;;;20.55;10.65;;;;;;;1.80;93.61;99467.03;5062117;28;20051;-87
2021/10/10 04:04:56;;;;;;;23.88;11.77;;;;;;;1.76;93.94;99470.38;5063313;28;20224;-87
2021/10/10 04:07:21;;;;;;;24.27;11.88;;;;;;;1.93;94.00;99471.75;5062192;28;20024;-87
2021/10/10 04:09:47;;;;;;;28.48;11.25;;;;;;;1.96;93.83;99477.00;5062309;28;20017;-87
2021/10/10 04:12:13;;;;;;;19.65;10.63;;;;;;;1.91;94.11;99478.59;5064138;28;20025;-87
2021/10/10 04:14:38;;;;;;;24.65;11.70;;;;;;;1.68;93.73;99466.72;5063181;28;20032;-87
2021/10/10 04:17:04;;;;;;;17.70;9.77;;;;;;;1.78;94.27;99477.38;5063074;28;20021;-87
2021/10/10 04:19:31;;;;;;;18.02;10.90;;;;;;;1.74;94.41;99478.13;5062400;28;20024;-87
2021/10/10 04:21:57;;;;;;;19.55;10.90;;;;;;;1.60;94.04;99476.88;5063495;28;20260;-87
2021/10/10 04:24:22;;;;;;;18.92;9.77;;;;;;;1.56;94.33;99469.84;5062415;28;20023;-87
2021/10/10 04:26:48;;;;;;;22.92;11.15;;;;;;;1.61;94.95;99477.72;5062112;28;20044;-87
2021/10/10 04:29:13;;;;;;;21.75;10.32;;;;;;;1.78;94.71;99476.50;5061531;28;20020;-87
2021/10/10 04:31:39;;;;;;;23.35;11.55;;;;;;;1.79;94.71;99473.97;5063051;28;20025;-87
2021/10/10 04:34:04;;;;;;;22.48;10.45;;;;;;;1.82;94.11;99467.97;5062151;28;20021;-87
2021/10/10 04:36:30;;;;;;;18.08;9.43;;;;;;;1.85;93.50;99468.06;5062001;28;20020;-87
2021/10/10 04:38:55;;;;;;;26.67;11.73;;;;;;;1.71;94.21;99474.59;5061630;28;20088;-87
2021/10/10 04:41:20;;;;;;;25.95;11.80;;;;;;;1.64;94.79;99468.31;5062954;28;20028;-87
2021/10/10 04:43:46;;;;;;;24.63;11.68;;;;;;;1.56;94.64;99479.31;5063393;28;20239;-87
2021/10/10 04:46:11;;;;;;;22.88;10.20;;;;;;;1.70;94.01;99472.81;5061938;28;20067;-87
2021/10/10 04:48:37;;;;;;;23.63;11.15;;;;;;;1.64;94.46;99472.63;5061619;28;20024;-87
2021/10/10 04:51:02;;;;;;;21.27;10.18;;;;;;;1.74;93.90;99470.34;5061796;28;20021;-87
2021/10/10 04:53:28;;;;;;;30.27;11.93;;;;;;;1.74;93.37;99472.06;5061579;28;20092;-87
2021/10/10 04:55:53;;;;;;;18.10;9.80;;;;;;;1.75;93.29;99476.41;5061637;28;20024;-87
2021/10/10 04:58:19;;;;;;;22.15;9.98;;;;;;;1.73;93.05;99484.16;5062443;28;20071;-87
2021/10/10 05:00:44;;;;;;;22.83;11.32;;;;;;;1.72;92.76;99481.53;5061568;28;20096;-87
2021/10/10 05:03:09;;;;;;;24.77;10.82;;;;;;;1.58;92.80;99482.84;5061669;28;20273;-87
2021/10/10 05:05:35;;;;;;;25.17;11.75;;;;;;;1.49;92.44;99485.16;5061945;28;20017;-87
2021/10/10 05:08:00;;;;;;;27.45;12.55;;;;;;;1.53;94.09;99484.41;5062164;28;20013;-87
2021/10/10 05:10:26;;;;;;;26.05;11.52;;;;;;;1.39;93.71;99486.59;5062948;28;20024;-87
2021/10/10 05:12:51;;;;;;;22.00;11.30;;;;;;;1.39;94.79;99480.53;5063025;28;20329;-87
2021/10/10 05:15:17;;;;;;;24.70;11.35;;;;;;;1.42;95.05;99485.78;5062845;28;20029;-87
2021/10/10 05:17:42;;;;;;;22.52;12.15;;;;;;;1.46;94.91;99495.44;5062535;28;20044;-87
2021/10/10 05:20:08;;;;;;;20.42;10.23;;;;;;;1.39;94.07;99493.50;5062790;28;20029;-87
2021/10/10 05:22:33;;;;;;;25.45;11.77;;;;;;;1.47;94.03;99492.91;5061769;28;20028;-87
2021/10/10 05:25:00;;;;;;;24.30;12.23;;;;;;;1.41;93.99;99499.59;5061576;28;20084;-87
2021/10/10 05:27:27;;;;;;;23.02;11.88;;;;;;;1.35;93.90;99494.22;5061737;28;20060;-87
2021/10/10 05:29:52;;;;;;;21.58;9.82;;;;;;;1.53;93.41;99502.56;5061158;28;20272;-87
2021/10/10 05:32:18;;;;;;;25.23;11.30;;;;;;;1.53;92.39;99492.19;5061203;28;20044;-87
2021/10/10 05:34:43;;;;;;;30.65;11.70;;;;;;;1.44;92.37;99494.50;5061197;28;20027;-87
2021/10/10 05:37:09;;;;;;;22.38;10.18;;;;;;;1.37;92.91;99495.16;5061102;28;20031;-87
2021/10/10 05:39:35;;;;;;;29.23;11.68;;;;;;;1.40;92.89;99487.47;5063050;28;20076;-87
2021/10/10 05:42:00;;;;;;;27.45;11.40;;;;;;;1.22;93.75;99492.09;5065327;28;20020;-87
2021/10/10 05:44:26;;;;;;;27.98;12.23;;;;;;;1.09;94.34;99489.97;5066584;28;20025;-87
2021/10/10 05:46:51;;;;;;;25.95;12.02;;;;;;;1.16;95.05;99495.38;5065197;28;20320;-87
2021/10/10 05:49:17;;;;;;;26.05;11.90;;;;;;;1.25;95.42;99492.19;5065429;28;20016;-87
2021/10/10 05:51:46;;;;;;;25.85;11.95;;;;;;;1.43;94.83;99492.75;5064907;28;20028;-86
2021/10/10 05:54:14;;;;;;;26.25;10.95;;;;;;;1.43;93.44;99497.94;5063465;28;20269;-88
2021/10/10 05:56:39;;;;;;;20.98;10.05;;;;;;;1.38;93.33;99489.13;5064331;28;20028;-87
2021/10/10 05:59:09;;;;;;;23.92;11.70;;;;;;;1.39;93.09;99496.09;5063744;28;20025;-87
2021/10/10 06:01:34;;;;;;;22.55;11.30;;;;;;;1.42;93.69;99488.38;5064071;28;20041;-87
2021/10/10 06:04:03;;;;;;;25.17;11.57;;;;;;;1.46;93.98;99485.94;5064666;28;20047;-87
2021/10/10 06:06:28;;;;;;;23.25;11.02;;;;;;;1.63;93.47;99491.63;5079751;28;20025;-87
2021/10/10 06:08:53;;;;;;;23.40;11.55;;;;;;;1.65;92.67;99497.75;5064599;28;20009;-87
2021/10/10 06:11:19;;;;;;;26.77;10.85;;;;;;;1.66;92.52;99496.91;5063881;28;20347;-88
2021/10/10 06:13:45;;;;;;;25.80;11.50;;;;;;;1.78;92.46;99492.09;5064094;28;20020;-87
2021/10/10 06:16:10;;;;;;;23.30;11.88;;;;;;;1.91;92.02;99497.66;5063432;28;20096;-87
2021/10/10 06:18:36;;;;;;;25.02;11.55;;;;;;;1.71;92.18;99492.75;5062877;28;20084;-87
2021/10/10 06:21:01;;;;;;;24.50;11.30;;;;;;;1.95;92.64;99507.28;5064225;28;20016;-88
2021/10/10 06:23:27;;;;;;;30.17;12.70;;;;;;;2.16;92.39;99509.59;5064482;28;20020;-88
2021/10/10 06:25:52;;;;;;;26.02;11.55;;;;;;;2.53;92.19;99503.69;5063581;28;20020;-88
2021/10/10 06:28:18;;;;;;;25.13;10.57;;;;;;;2.89;90.44;99505.47;5063214;28;20271;-88
2021/10/10 06:30:43;;;;;;;24.65;11.25;;;;;;;3.10;89.24;99505.97;5062311;28;20320;-88
2021/10/10 06:33:09;;;;;;;22.85;10.52;;;;;;;3.29;88.36;99512.50;5064014;28;20032;-88
2021/10/10 06:35:35;;;;;;;21.35;10.18;;;;;;;3.86;87.11;99514.66;5063400;28;20020;-88
2021/10/10 06:38:00;;;;;;;18.83;10.63;;;;;;;4.22;84.96;99510.22;5064400;28;20044;-88
2021/10/10 06:40:26;;;;;;;25.13;10.68;;;;;;;4.50;83.04;99512.47;5064461;28;20021;-88
2021/10/10 06:42:51;;;;;;;18.40;10.70;;;;;;;4.69;82.09;99499.75;5063332;28;20254;-88
2021/10/10 06:45:17;;;;;;;20.60;10.85;;;;;;;4.76;82.50;99504.22;5071705;28;20021;-88
2021/10/10 06:47:42;;;;;;;24.05;11.10;;;;;;;5.28;80.79;99512.06;5062980;28;20016;-86
2021/10/10 06:50:08;;;;;;;19.90;10.60;;;;;;;5.34;79.80;99501.69;5064768;28;20045;-85
2021/10/10 06:52:33;;;;;;;19.35;10.02;;;;;;;5.65;79.00;99515.22;5062072;28;20063;-87
2021/10/10 06:54:59;;;;;;;17.00;9.50;;;;;;;5.87;79.21;99511.19;5064421;28;20048;-87
2021/10/10 06:57:29;;;;;;;18.48;9.82;;;;;;;6.47;77.80;99506.69;5063105;28;20100;-88
2021/10/10 06:59:58;;;;;;;19.60;10.38;;;;;;;6.71;75.89;99501.75;5062260;28;20025;-87
2021/10/10 07:02:24;;;;;;;22.15;10.32;;;;;;;6.18;76.78;99508.13;5062134;28;20024;-88
2021/10/10 07:04:50;;;;;;;20.35;11.10;;;;;;;6.51;75.93;99513.72;5054768;28;20291;-87
2021/10/10 07:07:15;;;;;;;19.77;11.18;;;;;;;7.44;74.98;99518.91;5062887;28;20017;-87
2021/10/10 07:09:41;;;;;;;22.58;10.50;;;;;;;7.90;73.62;99511.34;5063165;28;20020;-88
2021/10/10 07:12:06;;;;;;;17.23;9.02;;;;;;;8.05;72.34;99511.44;5062575;28;20021;-88
2021/10/10 07:14:32;;;;;;;23.17;9.73;;;;;;;8.41;71.59;99511.59;5062782;28;20108;-90
2021/10/10 07:16:58;;;;;;;18.48;9.10;;;;;;;8.78;70.67;99517.81;5062778;28;20084;-89
2021/10/10 07:19:26;;;;;;;17.10;9.48;;;;;;;8.30;73.14;99518.56;5062900;28;20434;-88
2021/10/10 07:22:00;;;;;;;19.65;10.07;;;;;;;8.65;73.51;99519.53;5063130;28;20020;-88
2021/10/10 07:27:10;;;;;;;18.88;9.98;;;;;;;9.85;70.13;99525.66;5065032;28;20346;-88
2021/10/10 07:29:35;;;;;;;26.77;11.32;;;;;;;10.28;68.31;99527.28;5063353;28;20025;-89
2021/10/10 07:32:01;;;;;;;19.50;10.23;;;;;;;10.75;68.20;99526.19;5060486;28;20220;-88
2021/10/10 07:34:27;;;;;;;18.52;10.45;;;;;;;10.80;67.70;99523.53;5063106;28;20025;-87
2021/10/10 07:36:52;;;;;;;23.55;11.32;;;;;;;11.08;67.65;99524.22;5063223;28;20023;-88
2021/10/10 07:39:17;;;;;;;24.17;12.68;;;;;;;10.73;70.06;99522.66;5063401;28;20071;-88
2021/10/10 07:41:43;;;;;;;27.33;13.65;;;;;;;11.32;69.28;99524.88;5064425;28;20016;-88
2021/10/10 07:44:12;;;;;;;20.65;13.07;;;;;;;11.70;67.90;99525.44;5063831;28;20017;-88
2021/10/10 07:46:40;;;;;;;27.40;15.18;;;;;;;12.39;65.54;99527.31;5063717;28;20016;-88
2021/10/10 07:49:08;;;;;;;24.77;14.02;;;;;;;12.80;66.20;99526.78;5064033;28;20040;-88
2021/10/10 07:51:34;;;;;;;24.45;13.93;;;;;;;13.12;66.13;99526.31;5062962;28;20316;-88
2021/10/10 07:53:59;;;;;;;24.73;13.82;;;;;;;13.04;65.44;99529.94;5064550;28;20025;-88
2021/10/10 07:56:25;;;;;;;28.40;15.10;;;;;;;14.13;63.82;99528.06;5063224;28;20079;-88
2021/10/10 07:58:51;;;;;;;30.00;17.65;;;;;;;14.46;63.33;99553.94;5063401;28;20017;-88
2021/10/10 08:01:16;;;;;;;32.67;19.65;;;;;;;15.19;60.93;99548.78;5063168;28;20115;-88
2021/10/10 08:03:42;;;;;;;24.75;14.88;;;;;;;15.77;59.77;99554.44;5063261;28;20039;-88
2021/10/10 08:06:09;;;;;;;29.80;13.82;;;;;;;15.33;60.01;99544.00;5063356;28;20020;-88
2021/10/10 08:08:34;;;;;;;31.25;14.73;;;;;;;15.47;58.63;99544.56;5079912;28;20013;-88
2021/10/10 08:11:00;;;;;;;25.98;12.48;;;;;;;15.27;59.01;99552.09;5063031;28;20043;-88
2021/10/10 08:13:25;;;;;;;23.90;14.45;;;;;;;16.00;59.74;99553.81;5063263;28;20048;-89
2021/10/10 08:15:51;;;;;;;29.77;14.60;;;;;;;16.21;58.56;99556.78;5063217;28;20054;-88
2021/10/10 08:18:16;;;;;;;26.25;13.68;;;;;;;16.60;57.18;99550.38;5064295;28;20094;-88
2021/10/10 08:20:41;;;;;;;23.73;13.48;;;;;;;16.51;57.25;99549.75;5063187;28;20086;-88
2021/10/10 08:23:10;;;;;;;27.15;15.57;;;;;;;16.65;57.56;99551.09;5061482;28;20100;-88
2021/10/10 08:25:35;;;;;;;29.52;14.48;;;;;;;16.86;57.39;99555.81;5064082;28;20334;-88
2021/10/10 08:28:01;;;;;;;31.00;14.35;;;;;;;17.08;57.07;99548.91;5062988;28;20088;-88
2021/10/10 08:30:26;;;;;;;30.50;12.85;;;;;;;16.85;56.41;99559.38;5064175;28;20311;-88
2021/10/10 08:32:52;;;;;;;32.30;14.07;;;;;;;16.66;56.49;99555.53;5063729;28;20067;-88
2021/10/10 08:35:18;;;;;;;27.27;13.60;;;;;;;17.08;55.90;99558.66;5062908;28;20017;-88
2021/10/10 08:37:43;;;;;;;29.63;14.27;;;;;;;16.21;57.00;99556.78;5062873;28;20021;-88
2021/10/10 08:40:10;;;;;;;27.85;14.27;;;;;;;16.95;57.26;99550.22;5062829;28;20092;-88
2021/10/10 08:42:38;;;;;;;29.20;14.10;;;;;;;17.63;54.63;99550.72;5062717;28;20021;-88
2021/10/10 08:45:10;;;;;;;26.58;13.75;;;;;;;17.69;54.20;99550.53;5062816;28;20055;-88
2021/10/10 08:47:43;;;;;;;26.52;13.07;;;;;;;17.05;54.43;99543.69;5062757;28;20301;-88
2021/10/10 08:50:16;;;;;;;26.70;14.13;;;;;;;17.25;54.84;99546.59;5062912;28;20092;-88
2021/10/10 08:52:43;;;;;;;26.13;14.00;;;;;;;17.38;55.88;99546.19;5062409;28;20366;-88
2021/10/10 08:55:09;;;;;;;27.85;13.77;;;;;;;17.17;56.21;99547.75;5062937;28;20048;-88
2021/10/10 08:57:35;;;;;;;29.40;13.82;;;;;;;17.20;53.96;99545.88;5062580;28;20025;-88
2021/10/10 09:00:06;;;;;;;30.70;13.98;;;;;;;17.40;54.67;99539.06;5062756;28;20020;-88
2021/10/10 09:02:32;;;;;;;28.35;14.38;;;;;;;17.12;55.23;99533.75;5062134;28;20114;-88
2021/10/10 09:05:03;;;;;;;27.52;13.13;;;;;;;17.64;53.99;99531.16;5062847;28;20201;-88
2021/10/10 09:07:29;;;;;;;32.50;13.93;;;;;;;17.65;53.65;99529.38;5062358;28;20127;-88
2021/10/10 09:09:54;;;;;;;33.13;13.90;;;;;;;18.31;51.55;99543.00;5061695;28;20044;-88
2021/10/10 09:12:28;;;;;;;29.20;14.38;;;;;;;18.02;52.84;99529.84;5062369;28;20264;-88
2021/10/10 09:14:53;;;;;;;28.23;13.50;;;;;;;18.38;53.82;99524.09;5063644;28;20013;-88
2021/10/10 09:17:22;;;;;;;31.50;13.48;;;;;;;18.53;51.73;99533.31;5066041;28;20350;-88
2021/10/10 09:19:59;;;;;;;25.20;13.35;;;;;;;18.82;52.87;99535.75;5066667;28;20028;-88
2021/10/10 09:22:26;;;;;;;23.70;12.20;;;;;;;18.65;51.78;99591.53;5066391;28;20343;-88
2021/10/10 09:24:56;;;;;;;29.35;13.15;;;;;;;18.41;53.59;99539.09;5066554;28;20021;-88
2021/10/10 09:27:26;;;;;;;26.80;12.95;;;;;;;18.27;51.89;99542.25;5066619;28;20032;-88
2021/10/10 09:29:53;;;;;;;34.75;13.65;;;;;;;18.43;52.24;99611.91;5065909;28;20054;-87
2021/10/10 09:32:25;;;;;;;33.47;14.20;;;;;;;18.08;53.15;99553.59;5067158;28;20335;-87
2021/10/10 09:34:51;;;;;;;28.58;13.82;;;;;;;18.69;52.20;99545.16;5066237;28;20047;-87
2021/10/10 09:37:36;;;;;;;26.88;12.95;;;;;;;18.58;52.78;99536.69;5065828;28;20070;-87
2021/10/10 09:40:08;;;;;;;31.95;12.95;;;;;;;19.09;51.05;99542.72;5065583;28;20025;-86
2021/10/10 09:42:37;;;;;;;28.20;13.13;;;;;;;18.94;50.60;99533.50;5066015;28;20024;-87
2021/10/10 09:48:03;;;;;;;29.15;14.48;;;;;;;18.76;51.79;99541.31;5067078;28;20047;-86
2021/10/10 09:50:31;;;;;;;36.10;14.40;;;;;;;18.72;52.05;99534.38;5065567;28;20063;-88
2021/10/10 09:53:07;;;;;;;24.33;12.68;;;;;;;18.25;52.34;99532.56;5066684;28;20101;-88
2021/10/10 09:55:36;;;;;;;27.23;12.65;;;;;;;18.58;52.98;99531.38;5065785;28;20021;-88
2021/10/10 09:58:02;;;;;;;24.38;13.18;;;;;;;18.53;52.45;99533.31;5065622;28;20021;-87
2021/10/10 10:00:34;;;;;;;24.83;12.73;;;;;;;18.99;52.82;99963.81;5065583;28;20312;-89
2021/10/10 10:03:11;;;;;;;23.58;12.85;;;;;;;18.68;51.34;99904.38;5065066;28;20328;-89
2021/10/10 10:05:38;;;;;;;29.95;13.88;;;;;;;18.22;51.67;99639.28;5065192;28;20020;-89
2021/10/10 10:08:04;;;;;;;29.10;13.63;;;;;;;18.55;51.79;99611.47;5065483;28;20108;-88
2021/10/10 10:10:32;;;;;;;27.90;12.52;;;;;;;18.93;52.44;99600.28;5064932;28;20017;-88
2021/10/10 10:12:59;;;;;;;29.27;13.10;;;;;;;18.22;52.69;99586.00;5065233;28;20024;-88
2021/10/10 10:15:30;;;;;;;29.67;12.63;;;;;;;18.12;52.52;99584.53;5065445;28;20047;-88
2021/10/10 10:17:57;;;;;;;27.90;12.82;;;;;;;17.90;53.23;99583.53;5065767;28;20028;-88
2021/10/10 10:20:28;;;;;;;26.65;14.10;;;;;;;17.15;54.94;99569.09;5065620;28;20316;-88
2021/10/10 10:22:55;;;;;;;33.35;14.73;;;;;;;17.60;53.32;99569.47;5066388;28;20086;-88
2021/10/10 10:25:22;;;;;;;25.40;14.60;;;;;;;17.48;53.55;99553.00;5065059;28;20033;-88
2021/10/10 10:27:49;;;;;;;28.38;13.43;;;;;;;17.74;55.52;99555.66;5063728;28;20059;-88
2021/10/10 10:30:17;;;;;;;29.85;13.52;;;;;;;17.99;53.24;99553.91;5065207;28;20316;-88
2021/10/10 10:32:44;;;;;;;33.22;13.05;;;;;;;18.55;52.99;99531.47;5065117;28;20316;-88
2021/10/10 10:35:15;;;;;;;27.38;13.32;;;;;;;18.51;52.62;99530.72;5065144;28;20091;-88
2021/10/10 10:37:44;;;;;;;26.87;13.47;;;;;;;18.56;52.51;99533.22;5066201;28;20025;-88
2021/10/10 10:40:15;;;;;;;27.85;13.43;;;;;;;17.80;54.42;99528.84;5066033;28;20269;-88
2021/10/10 10:42:45;;;;;;;31.77;13.05;;;;;;;17.36;54.47;99526.75;5065298;28;20084;-88
2021/10/10 10:45:33;;;;;;;32.33;13.05;;;;;;;18.05;54.05;99524.41;5065047;28;20033;-88
2021/10/10 10:48:03;;;;;;;30.10;13.85;;;;;;;17.88;54.66;99521.47;5063823;28;20028;-88
2021/10/10 10:50:41;;;;;;;28.08;13.75;;;;;;;18.03;53.03;99521.78;5063675;28;20376;-88
2021/10/10 10:53:13;;;;;;;25.95;12.57;;;;;;;17.73;53.75;99519.31;5064812;28;20013;-88
2021/10/10 10:55:44;;;;;;;24.90;13.57;;;;;;;17.58;54.09;99519.81;5064825;28;20267;-88
2021/10/10 10:58:10;;;;;;;27.65;13.63;;;;;;;17.74;53.86;99523.72;5063315;28;20036;-88
2021/10/10 11:00:40;;;;;;;33.88;13.10;;;;;;;17.54;54.31;99513.75;5064732;28;20020;-88
2021/10/10 11:03:24;;;;;;;31.38;14.77;;;;;;;17.30;55.51;99518.97;5063184;28;20120;-88
2021/10/10 11:05:54;;;;;;;25.13;12.88;;;;;;;17.73;54.53;99516.66;5063370;28;20024;-88
2021/10/10 11:08:22;;;;;;;31.25;13.68;;;;;;;16.87;56.39;99506.16;5063410;28;20078;-88
2021/10/10 11:11:00;;;;;;;26.33;12.02;;;;;;;17.41;55.65;99514.16;5063836;28;20148;-88
2021/10/10 11:13:31;;;;;;;28.33;13.43;;;;;;;17.60;54.65;99508.22;5063385;28;20020;-88
2021/10/10 11:16:05;;;;;;;33.40;13.40;;;;;;;17.61;54.86;99501.09;5063288;28;20025;-88
2021/10/10 11:18:31;;;;;;;21.98;12.23;;;;;;;18.01;54.50;99506.78;5043325;28;20026;-88
2021/10/10 11:21:00;;;;;;;32.50;13.38;;;;;;;17.92;53.02;99507.09;5056313;28;20031;-88
2021/10/10 11:23:27;;;;;;;26.85;13.90;;;;;;;18.09;53.87;99499.38;5063907;28;20055;-88
2021/10/10 11:25:55;;;;;;;28.17;12.80;;;;;;;18.09;54.29;99502.03;5063207;28;20065;-88
2021/10/10 11:28:44;;;;;;;27.10;13.13;;;;;;;17.83;52.83;99489.66;5062773;28;20024;-88